Time;durP1;ratioP1;P1;durP2;ratioP2;P2;SDS_P1;SDS_P2;PMS_P1;PMS_P2;Temp;Humidity;BMP_temperature;BMP_pressure;BME280_temperature;BME280_humidity;BME280_pressure;Samples;Min_cycle;Max_cycle;Signal;HPM_P1;HPM_P2
2024/01/01 00:01:55;;;;;;;18.17;10.38;;;;;;;;;;5040052;28;20038;-83
2024/01/01 00:04:23;;;;;;;15.05;9.52;;;;;;;;;;5038612;28;20038;-83
2024/01/01 00:06:49;;;;;;;14.90;7.97;;;;;;;;;;5044452;28;20046;-84
2024/01/01 00:09:15;;;;;;;19.45;9.02;;;;;;;;;;5029736;28;20076;-82
2024/01/01 00:11:41;;;;;;;19.80;9.95;;;;;;;;;;5045234;28;20044;-83
2024/01/01 00:14:07;;;;;;;16.48;9.35;;;;;;;;;;5050147;28;20157;-83
2024/01/01 00:16:33;;;;;;;19.20;10.30;;;;;;;;;;5044663;28;20041;-83
2024/01/01 00:18:59;;;;;;;22.33;13.82;;;;;;;;;;5027990;28;20504;-83
2024/01/01 00:21:25;;;;;;;21.00;13.50;;;;;;;;;;5023726;28;20060;-82
2024/01/01 00:23:51;;;;;;;18.02;10.95;;;;;;;;;;5046084;28;20083;-82
2024/01/01 00:26:17;;;;;;;25.30;15.10;;;;;;;;;;5038745;28;20037;-84
2024/01/01 00:28:43;;;;;;;26.73;15.57;;;;;;;;;;5047781;28;20120;-83
2024/01/01 00:31:09;;;;;;;22.88;13.85;;;;;;;;;;5039907;28;20049;-83
2024/01/01 00:33:35;;;;;;;23.90;15.38;;;;;;;;;;5049907;28;20408;-83
2024/01/01 00:36:01;;;;;;;25.85;15.02;;;;;;;;;;5037083;28;20037;-83
2024/01/01 00:38:27;;;;;;;26.48;17.75;;;;;;;;;;5027532;28;20056;-83
2024/01/01 00:40:53;;;;;;;24.48;14.13;;;;;;;;;;5016732;28;20497;-83
2024/01/01 00:43:19;;;;;;;20.88;12.75;;;;;;;;;;5044814;28;20504;-83
2024/01/01 00:45:45;;;;;;;28.33;17.67;;;;;;;;;;5050153;28;20128;-83
2024/01/01 00:48:11;;;;;;;26.65;16.83;;;;;;;;;;5046364;28;20041;-83
2024/01/01 00:50:37;;;;;;;19.02;11.70;;;;;;;;;;5024290;28;20083;-83
2024/01/01 00:53:03;;;;;;;26.83;16.67;;;;;;;;;;5021607;28;20063;-84
2024/01/01 00:55:31;;;;;;;22.95;12.13;;;;;;;;;;5040631;28;20041;-84
2024/01/01 00:57:57;;;;;;;26.30;14.85;;;;;;;;;;5038694;28;20048;-83
2024/01/01 01:00:23;;;;;;;18.58;12.10;;;;;;;;;;5036142;28;20029;-83
2024/01/01 01:02:49;;;;;;;19.90;12.48;;;;;;;;;;5040655;28;20041;-83
2024/01/01 01:05:15;;;;;;;10.80;7.07;;;;;;;;;;5044504;28;20058;-83
2024/01/01 01:07:41;;;;;;;20.00;11.00;;;;;;;;;;5047766;28;20107;-83
2024/01/01 01:10:07;;;;;;;19.45;9.63;;;;;;;;;;5053388;28;20087;-83
2024/01/01 01:12:33;;;;;;;20.90;9.90;;;;;;;;;;5054268;28;20041;-83
2024/01/01 01:14:59;;;;;;;19.58;11.30;;;;;;;;;;5052536;28;20043;-83
2024/01/01 01:17:25;;;;;;;18.13;10.25;;;;;;;;;;5052733;28;20041;-83
2024/01/01 01:19:51;;;;;;;16.15;10.70;;;;;;;;;;5038640;28;20037;-83
2024/01/01 01:22:17;;;;;;;13.82;7.45;;;;;;;;;;5051968;28;20054;-83
2024/01/01 01:24:44;;;;;;;18.85;11.18;;;;;;;;;;5051653;28;20083;-83
2024/01/01 01:27:10;;;;;;;19.98;12.02;;;;;;;;;;5051298;28;20123;-83
2024/01/01 01:29:36;;;;;;;25.75;13.55;;;;;;;;;;5049028;28;20055;-83
2024/01/01 01:32:04;;;;;;;21.50;13.20;;;;;;;;;;5053847;28;20048;-83
2024/01/01 01:34:30;;;;;;;22.60;12.57;;;;;;;;;;5056558;28;20041;-83
2024/01/01 01:36:56;;;;;;;30.70;16.85;;;;;;;;;;5050704;28;20087;-83
2024/01/01 01:39:22;;;;;;;24.58;16.48;;;;;;;;;;5052693;28;20029;-83
2024/01/01 01:41:48;;;;;;;27.25;16.55;;;;;;;;;;5034780;28;20373;-83
2024/01/01 01:44:14;;;;;;;23.85;15.80;;;;;;;;;;5048581;28;20041;-83
2024/01/01 01:46:41;;;;;;;25.08;15.07;;;;;;;;;;5055369;28;21711;-83
2024/01/01 01:49:07;;;;;;;27.10;16.77;;;;;;;;;;5051238;28;20037;-83
2024/01/01 01:51:33;;;;;;;26.90;16.63;;;;;;;;;;5052499;28;20040;-83
2024/01/01 01:54:00;;;;;;;17.50;11.32;;;;;;;;;;5055354;28;20037;-83
2024/01/01 01:56:26;;;;;;;28.35;17.02;;;;;;;;;;5056281;28;20033;-83
2024/01/01 01:58:53;;;;;;;35.22;20.15;;;;;;;;;;5051154;28;20132;-83
2024/01/01 02:01:19;;;;;;;17.38;12.13;;;;;;;;;;5053241;28;20059;-82
2024/01/01 02:03:45;;;;;;;22.70;14.50;;;;;;;;;;5058093;28;20059;-83
2024/01/01 02:06:11;;;;;;;29.85;18.38;;;;;;;;;;5052995;28;20041;-83
2024/01/01 02:08:37;;;;;;;27.20;14.90;;;;;;;;;;5053575;28;20404;-83
2024/01/01 02:11:03;;;;;;;26.48;16.05;;;;;;;;;;5056155;28;20045;-82
2024/01/01 02:13:30;;;;;;;24.02;16.63;;;;;;;;;;5053116;28;20037;-83
2024/01/01 02:15:56;;;;;;;23.02;13.57;;;;;;;;;;5044357;28;20049;-83
2024/01/01 02:18:23;;;;;;;18.52;9.70;;;;;;;;;;5058104;28;20072;-83
2024/01/01 02:20:49;;;;;;;17.77;10.52;;;;;;;;;;5051547;28;20064;-83
2024/01/01 02:23:16;;;;;;;24.75;13.80;;;;;;;;;;5056916;28;20072;-82
2024/01/01 02:25:42;;;;;;;20.77;11.55;;;;;;;;;;5049611;28;20044;-82
2024/01/01 02:28:08;;;;;;;16.35;9.20;;;;;;;;;;5053620;28;20036;-82
2024/01/01 02:30:34;;;;;;;19.80;11.77;;;;;;;;;;5054428;28;20064;-83
2024/01/01 02:33:05;;;;;;;21.52;11.18;;;;;;;;;;5049239;28;20492;-83
2024/01/01 02:35:31;;;;;;;18.70;8.60;;;;;;;;;;5053939;28;20037;-83
2024/01/01 02:37:57;;;;;;;11.07;6.18;;;;;;;;;;5053335;28;20412;-82
2024/01/01 02:40:23;;;;;;;12.85;7.40;;;;;;;;;;5059240;28;20036;-82
2024/01/01 02:42:49;;;;;;;13.73;7.82;;;;;;;;;;5051312;28;20099;-83
2024/01/01 02:45:15;;;;;;;9.55;5.10;;;;;;;;;;5050525;28;20072;-82
2024/01/01 02:47:43;;;;;;;11.85;5.82;;;;;;;;;;5056655;28;20115;-82
2024/01/01 02:50:09;;;;;;;7.95;5.05;;;;;;;;;;5051055;28;20793;-82
2024/01/01 02:52:35;;;;;;;12.00;6.03;;;;;;;;;;5058323;28;20033;-83
2024/01/01 02:55:01;;;;;;;12.88;5.88;;;;;;;;;;5058379;28;20043;-83
2024/01/01 02:57:27;;;;;;;7.75;4.68;;;;;;;;;;5050848;28;20498;-82
2024/01/01 02:59:53;;;;;;;10.75;5.25;;;;;;;;;;5057535;28;20037;-82
2024/01/01 03:02:19;;;;;;;7.75;3.33;;;;;;;;;;5051817;28;20045;-77
2024/01/01 03:04:45;;;;;;;3.67;2.38;;;;;;;;;;5045817;28;20131;-77
2024/01/01 03:07:11;;;;;;;3.60;2.22;;;;;;;;;;5044074;28;20041;-78
2024/01/01 03:09:37;;;;;;;3.95;2.80;;;;;;;;;;5050290;28;20059;-77
2024/01/01 03:12:03;;;;;;;5.82;1.75;;;;;;;;;;5048121;28;20086;-77
2024/01/01 03:14:29;;;;;;;4.93;2.60;;;;;;;;;;5050851;28;20076;-77
2024/01/01 03:16:56;;;;;;;6.07;2.60;;;;;;;;;;5039948;28;20064;-77
2024/01/01 03:19:22;;;;;;;4.45;2.78;;;;;;;;;;5047394;28;20039;-77
2024/01/01 03:21:48;;;;;;;7.53;2.40;;;;;;;;;;5044866;28;20123;-77
2024/01/01 03:24:15;;;;;;;6.45;2.58;;;;;;;;;;5049511;28;20044;-77
2024/01/01 03:26:41;;;;;;;5.05;2.25;;;;;;;;;;5051033;28;20063;-77
2024/01/01 03:29:07;;;;;;;2.92;1.77;;;;;;;;;;5041524;28;20048;-77
2024/01/01 03:31:33;;;;;;;8.57;2.33;;;;;;;;;;5048756;28;20036;-77
2024/01/01 03:33:59;;;;;;;5.10;2.08;;;;;;;;;;5043992;28;20048;-77
2024/01/01 03:36:25;;;;;;;6.20;2.35;;;;;;;;;;5047636;28;20075;-77
2024/01/01 03:38:52;;;;;;;3.67;1.83;;;;;;;;;;5044426;28;20044;-76
2024/01/01 03:41:18;;;;;;;4.35;1.73;;;;;;;;;;5046883;28;20040;-77
2024/01/01 03:43:44;;;;;;;4.63;1.80;;;;;;;;;;5046551;28;20373;-77
2024/01/01 03:46:10;;;;;;;5.20;1.92;;;;;;;;;;5045354;28;20037;-77
2024/01/01 03:48:36;;;;;;;5.45;1.52;;;;;;;;;;5049794;28;20033;-79
2024/01/01 03:51:02;;;;;;;4.90;1.65;;;;;;;;;;5053498;28;20067;-79
2024/01/01 03:53:28;;;;;;;4.38;1.55;;;;;;;;;;5050218;28;20139;-79
2024/01/01 03:55:54;;;;;;;4.63;1.60;;;;;;;;;;5044856;28;20077;-79
2024/01/01 03:58:20;;;;;;;2.95;1.10;;;;;;;;;;5050923;28;20033;-79
2024/01/01 04:00:46;;;;;;;7.03;1.58;;;;;;;;;;5044252;28;20089;-79
2024/01/01 04:03:12;;;;;;;3.38;1.20;;;;;;;;;;5049587;28;20124;-82
2024/01/01 04:05:38;;;;;;;4.50;2.17;;;;;;;;;;5037386;28;20072;-82
2024/01/01 04:08:04;;;;;;;1.40;0.90;;;;;;;;;;5055577;28;20069;-82
2024/01/01 04:10:30;;;;;;;1.60;1.25;;;;;;;;;;5064026;28;20041;-82
2024/01/01 04:12:59;;;;;;;4.53;1.40;;;;;;;;;;5070777;28;20132;-83
2024/01/01 04:15:25;;;;;;;5.22;1.50;;;;;;;;;;5071230;28;20056;-83
2024/01/01 04:17:54;;;;;;;5.18;2.20;;;;;;;;;;5052810;28;20050;-82
2024/01/01 04:20:21;;;;;;;3.53;2.28;;;;;;;;;;5056959;28;20079;-82
2024/01/01 04:22:51;;;;;;;3.38;1.10;;;;;;;;;;5051961;28;20121;-82
2024/01/01 04:25:17;;;;;;;5.40;1.02;;;;;;;;;;5048087;28;20045;-82
2024/01/01 04:27:43;;;;;;;4.47;2.00;;;;;;;;;;5057549;28;20076;-82
2024/01/01 04:30:10;;;;;;;3.45;1.30;;;;;;;;;;5058593;28;20060;-82
2024/01/01 04:32:36;;;;;;;6.25;1.50;;;;;;;;;;5050563;28;20046;-82
2024/01/01 04:35:03;;;;;;;5.78;1.55;;;;;;;;;;5055112;28;20047;-82
2024/01/01 04:37:29;;;;;;;6.93;2.17;;;;;;;;;;5054845;28;20068;-82
2024/01/01 04:39:55;;;;;;;4.35;1.38;;;;;;;;;;5055673;28;20041;-81
2024/01/01 04:42:21;;;;;;;5.60;1.45;;;;;;;;;;5049660;28;20037;-82
2024/01/01 04:44:47;;;;;;;7.47;1.52;;;;;;;;;;5051449;28;20518;-81
2024/01/01 04:47:13;;;;;;;5.85;1.80;;;;;;;;;;5054744;28;20045;-81
2024/01/01 04:49:41;;;;;;;4.20;1.20;;;;;;;;;;5062111;28;20075;-81
2024/01/01 04:52:07;;;;;;;6.53;1.67;;;;;;;;;;5053026;28;20039;-81
2024/01/01 04:54:33;;;;;;;5.35;1.52;;;;;;;;;;5054119;28;20096;-82
2024/01/01 04:56:59;;;;;;;5.95;1.15;;;;;;;;;;5055651;28;20037;-81
2024/01/01 04:59:25;;;;;;;6.35;1.40;;;;;;;;;;5047712;28;20091;-81
2024/01/01 05:01:51;;;;;;;2.28;0.82;;;;;;;;;;5051509;28;20135;-81
2024/01/01 05:04:17;;;;;;;4.82;1.27;;;;;;;;;;5054535;28;20045;-82
2024/01/01 05:06:43;;;;;;;6.47;1.52;;;;;;;;;;5054932;28;20488;-82
2024/01/01 05:09:09;;;;;;;3.00;0.88;;;;;;;;;;5049909;28;20096;-82
2024/01/01 05:11:39;;;;;;;5.75;2.17;;;;;;;;;;5054739;28;20502;-81
2024/01/01 05:14:05;;;;;;;7.47;1.33;;;;;;;;;;5053837;28;20033;-82
2024/01/01 05:16:33;;;;;;;10.77;2.38;;;;;;;;;;5051891;28;20037;-82
2024/01/01 05:18:59;;;;;;;3.85;1.77;;;;;;;;;;5051168;28;20041;-77
2024/01/01 05:21:25;;;;;;;2.53;1.13;;;;;;;;;;5048316;28;20381;-77
2024/01/01 05:23:51;;;;;;;4.78;1.42;;;;;;;;;;5049980;28;20152;-77
2024/01/01 05:26:17;;;;;;;4.63;1.73;;;;;;;;;;5053734;28;20040;-78
2024/01/01 05:28:43;;;;;;;6.68;1.75;;;;;;;;;;5055002;28;20041;-79
2024/01/01 05:31:09;;;;;;;4.88;1.63;;;;;;;;;;5058033;28;20148;-80
2024/01/01 05:33:36;;;;;;;8.85;2.10;;;;;;;;;;5059403;28;20087;-80
2024/01/01 05:36:02;;;;;;;6.47;2.13;;;;;;;;;;5050637;28;20052;-79
2024/01/01 05:38:31;;;;;;;6.78;2.00;;;;;;;;;;5060784;28;20542;-79
2024/01/01 05:41:00;;;;;;;6.05;1.70;;;;;;;;;;5052772;28;20044;-80
2024/01/01 05:43:27;;;;;;;1.85;0.93;;;;;;;;;;5047595;28;20107;-79
2024/01/01 05:45:53;;;;;;;3.80;1.33;;;;;;;;;;5056015;28;20317;-79
2024/01/01 05:48:19;;;;;;;5.30;1.40;;;;;;;;;;5051516;28;20075;-79
2024/01/01 05:50:45;;;;;;;3.60;1.30;;;;;;;;;;5046347;28;20068;-77
2024/01/01 05:53:11;;;;;;;5.95;1.58;;;;;;;;;;5053970;28;20095;-78
2024/01/01 05:55:37;;;;;;;5.97;2.00;;;;;;;;;;5049325;28;20553;-77
2024/01/01 05:58:03;;;;;;;4.78;1.27;;;;;;;;;;5045410;28;20045;-77
2024/01/01 06:00:29;;;;;;;5.07;2.00;;;;;;;;;;5051523;28;20048;-77
2024/01/01 06:02:55;;;;;;;8.48;1.70;;;;;;;;;;5048821;28;20607;-78
2024/01/01 06:05:21;;;;;;;6.55;1.98;;;;;;;;;;5048052;28;20041;-77
2024/01/01 06:07:47;;;;;;;7.72;2.35;;;;;;;;;;5041170;28;20049;-78
2024/01/01 06:10:14;;;;;;;6.85;1.75;;;;;;;;;;5031354;28;20051;-78
2024/01/01 06:12:40;;;;;;;5.32;1.83;;;;;;;;;;5033554;28;20044;-78
2024/01/01 06:15:06;;;;;;;2.45;1.23;;;;;;;;;;5013542;28;20038;-79
2024/01/01 06:17:32;;;;;;;6.68;2.08;;;;;;;;;;5033235;28;20072;-80
2024/01/01 06:20:01;;;;;;;6.15;1.92;;;;;;;;;;5037561;28;20033;-80
2024/01/01 06:22:27;;;;;;;6.72;1.50;;;;;;;;;;5036897;28;20045;-78
2024/01/01 06:24:53;;;;;;;5.53;2.08;;;;;;;;;;5016043;28;20112;-84
2024/01/01 06:27:19;;;;;;;8.65;2.17;;;;;;;;;;5016838;28;20133;-83
2024/01/01 06:29:45;;;;;;;5.75;2.20;;;;;;;;;;4997653;28;20089;-84
2024/01/01 06:32:11;;;;;;;6.50;2.33;;;;;;;;;;5016310;28;20038;-85
2024/01/01 06:34:37;;;;;;;4.50;1.50;;;;;;;;;;5018269;28;20052;-84
2024/01/01 06:37:04;;;;;;;2.72;1.55;;;;;;;;;;5017261;28;20048;-83
2024/01/01 06:39:29;;;;;;;4.43;1.67;;;;;;;;;;5035732;28;20045;-84
2024/01/01 06:41:55;;;;;;;2.17;1.20;;;;;;;;;;5034388;28;20457;-84
2024/01/01 06:44:25;;;;;;;2.85;1.20;;;;;;;;;;5035513;28;20037;-84
2024/01/01 06:46:51;;;;;;;2.50;0.68;;;;;;;;;;5034350;28;20055;-83
2024/01/01 06:49:17;;;;;;;7.30;2.00;;;;;;;;;;5017454;28;20116;-84
2024/01/01 06:51:48;;;;;;;4.90;1.60;;;;;;;;;;5017139;28;20548;-83
2024/01/01 06:54:14;;;;;;;6.13;2.15;;;;;;;;;;5032325;28;20056;-84
2024/01/01 06:56:41;;;;;;;7.25;2.30;;;;;;;;;;5031338;28;20033;-83
2024/01/01 06:59:07;;;;;;;3.60;2.00;;;;;;;;;;5026038;28;20060;-83
2024/01/01 07:01:33;;;;;;;5.18;1.35;;;;;;;;;;5035199;28;20038;-82
2024/01/01 07:03:59;;;;;;;4.20;2.00;;;;;;;;;;5016503;28;20199;-82
2024/01/01 07:06:25;;;;;;;2.83;1.27;;;;;;;;;;5034381;28;20084;-83
2024/01/01 07:08:51;;;;;;;4.82;1.63;;;;;;;;;;5044163;28;20440;-84
2024/01/01 07:11:17;;;;;;;3.38;1.52;;;;;;;;;;5050343;28;20041;-84
2024/01/01 07:13:43;;;;;;;4.95;1.75;;;;;;;;;;5054030;28;20052;-83
2024/01/01 07:16:09;;;;;;;3.50;1.20;;;;;;;;;;5051726;28;20029;-84
2024/01/01 07:18:36;;;;;;;3.78;1.55;;;;;;;;;;5052429;28;20037;-84
2024/01/01 07:21:02;;;;;;;3.35;1.38;;;;;;;;;;5055288;28;20048;-85
2024/01/01 07:23:30;;;;;;;8.30;2.17;;;;;;;;;;5061935;28;20036;-84
2024/01/01 07:25:56;;;;;;;2.88;1.30;;;;;;;;;;5075539;28;20114;-83
2024/01/01 07:28:25;;;;;;;1.75;1.02;;;;;;;;;;5097849;22;20053;-78
2024/01/01 07:30:51;;;;;;;6.10;1.58;;;;;;;;;;5043444;28;20396;-78
2024/01/01 07:33:17;;;;;;;1.90;1.20;;;;;;;;;;5043071;28;20037;-79
2024/01/01 07:35:43;;;;;;;3.00;1.42;;;;;;;;;;5028876;28;20040;-78
2024/01/01 07:38:09;;;;;;;6.05;1.42;;;;;;;;;;5027822;28;20041;-78
2024/01/01 07:40:36;;;;;;;7.05;2.00;;;;;;;;;;5051878;28;20045;-78
2024/01/01 07:43:04;;;;;;;6.18;1.88;;;;;;;;;;5049512;28;20053;-78
2024/01/01 07:45:30;;;;;;;6.00;1.95;;;;;;;;;;5039795;28;20044;-77
2024/01/01 07:47:56;;;;;;;2.92;1.10;;;;;;;;;;5049765;28;20070;-78
2024/01/01 07:50:22;;;;;;;6.07;2.05;;;;;;;;;;5045264;28;20048;-78
2024/01/01 07:52:48;;;;;;;2.90;2.40;;;;;;;;;;5024092;28;20047;-78
2024/01/01 07:55:14;;;;;;;5.40;1.50;;;;;;;;;;5047443;28;20036;-78
2024/01/01 07:57:40;;;;;;;5.10;2.03;;;;;;;;;;5047950;28;20044;-79
2024/01/01 08:00:09;;;;;;;3.13;1.40;;;;;;;;;;5048145;28;20079;-78
2024/01/01 08:02:35;;;;;;;4.00;1.35;;;;;;;;;;5048769;28;20051;-79
2024/01/01 08:05:01;;;;;;;9.95;3.72;;;;;;;;;;5034666;28;20057;-79
2024/01/01 08:07:27;;;;;;;4.45;2.17;;;;;;;;;;5052176;28;20167;-78
2024/01/01 08:09:53;;;;;;;5.13;2.40;;;;;;;;;;5045775;28;20139;-79
2024/01/01 08:12:19;;;;;;;10.35;2.35;;;;;;;;;;5042581;28;20104;-79
2024/01/01 08:14:45;;;;;;;6.70;1.95;;;;;;;;;;5046547;28;20060;-79
2024/01/01 08:17:11;;;;;;;5.63;2.88;;;;;;;;;;5045697;28;20519;-79
2024/01/01 08:19:37;;;;;;;6.80;2.25;;;;;;;;;;5053371;28;20041;-79
2024/01/01 08:22:03;;;;;;;8.95;2.38;;;;;;;;;;5052774;28;20041;-79
2024/01/01 08:24:29;;;;;;;5.68;1.75;;;;;;;;;;5057646;28;20075;-79
2024/01/01 08:26:56;;;;;;;7.35;3.17;;;;;;;;;;5055362;28;20049;-80
2024/01/01 08:29:22;;;;;;;4.03;1.85;;;;;;;;;;5063909;28;20106;-79
2024/01/01 08:31:48;;;;;;;0.77;0.50;;;;;;;;;;5071242;28;20060;-79
2024/01/01 08:34:14;;;;;;;7.95;2.53;;;;;;;;;;5071521;28;20082;-83
2024/01/01 08:36:40;;;;;;;3.88;1.67;;;;;;;;;;5075506;28;20056;-84
2024/01/01 08:39:09;;;;;;;5.75;2.00;;;;;;;;;;5074379;28;20037;-85
2024/01/01 08:41:40;;;;;;;4.45;1.63;;;;;;;;;;5075045;28;20040;-83
2024/01/01 08:44:07;;;;;;;1.45;0.95;;;;;;;;;;5076113;28;20036;-83
2024/01/01 08:46:33;;;;;;;6.85;2.17;;;;;;;;;;5058392;28;20056;-83
2024/01/01 08:49:01;;;;;;;6.03;2.55;;;;;;;;;;5060167;28;20043;-84
2024/01/01 08:51:27;;;;;;;1.83;1.42;;;;;;;;;;5055198;28;20044;-83
2024/01/01 08:53:55;;;;;;;4.72;2.33;;;;;;;;;;5054384;28;20421;-83
2024/01/01 08:56:21;;;;;;;3.10;1.42;;;;;;;;;;5074038;28;20040;-82
2024/01/01 08:58:47;;;;;;;7.18;1.88;;;;;;;;;;5073014;28;20086;-81
2024/01/01 09:01:13;;;;;;;4.32;2.17;;;;;;;;;;5074164;28;20091;-82
2024/01/01 09:03:39;;;;;;;7.40;2.25;;;;;;;;;;5074498;28;20492;-83
2024/01/01 09:06:05;;;;;;;5.88;1.55;;;;;;;;;;5055844;28;20194;-82
2024/01/01 09:08:31;;;;;;;1.35;0.82;;;;;;;;;;5056727;28;20052;-83
2024/01/01 09:10:57;;;;;;;5.45;1.52;;;;;;;;;;5053982;28;20052;-82
2024/01/01 09:13:23;;;;;;;5.28;2.00;;;;;;;;;;5078544;28;20028;-83
2024/01/01 09:15:50;;;;;;;5.10;1.70;;;;;;;;;;5042982;28;20491;-83
2024/01/01 09:18:15;;;;;;;4.40;1.83;;;;;;;;;;5078679;28;20092;-83
2024/01/01 09:20:41;;;;;;;2.00;1.17;;;;;;;;;;5080222;28;20041;-82
2024/01/01 09:23:08;;;;;;;4.20;1.83;;;;;;;;;;5075733;28;20162;-83
2024/01/01 09:25:34;;;;;;;4.25;2.53;;;;;;;;;;5073577;28;20047;-84
2024/01/01 09:28:00;;;;;;;4.60;2.30;;;;;;;;;;5056975;28;20048;-83
2024/01/01 09:30:26;;;;;;;8.82;1.67;;;;;;;;;;5054669;28;20045;-82
2024/01/01 09:32:52;;;;;;;7.35;2.08;;;;;;;;;;5056219;28;20040;-83
2024/01/01 09:35:18;;;;;;;5.85;1.83;;;;;;;;;;5074534;28;20043;-82
2024/01/01 09:37:44;;;;;;;4.88;2.08;;;;;;;;;;5075449;28;20039;-82
2024/01/01 09:40:11;;;;;;;8.45;2.20;;;;;;;;;;5056425;28;20507;-82
2024/01/01 09:42:37;;;;;;;5.32;1.80;;;;;;;;;;5084713;28;20044;-83
2024/01/01 09:45:03;;;;;;;4.95;2.00;;;;;;;;;;5088200;28;20040;-82
2024/01/01 09:47:31;;;;;;;4.05;1.00;;;;;;;;;;5091155;28;20033;-82
2024/01/01 09:49:57;;;;;;;3.85;1.13;;;;;;;;;;5050858;28;20109;-84
2024/01/01 09:52:23;;;;;;;3.13;1.40;;;;;;;;;;5070352;28;20546;-85
2024/01/01 09:54:49;;;;;;;2.03;0.60;;;;;;;;;;5050606;28;20041;-85
2024/01/01 09:57:15;;;;;;;9.60;1.98;;;;;;;;;;5052512;28;20037;-85
2024/01/01 09:59:41;;;;;;;0.95;0.75;;;;;;;;;;5050958;28;20585;-85
2024/01/01 10:02:08;;;;;;;2.22;0.95;;;;;;;;;;5070729;28;20041;-85
2024/01/01 10:04:34;;;;;;;4.13;1.35;;;;;;;;;;5070872;28;20119;-85
2024/01/01 10:07:00;;;;;;;2.38;1.25;;;;;;;;;;5049781;28;20036;-86
2024/01/01 10:09:27;;;;;;;1.50;1.35;;;;;;;;;;5056643;28;20037;-86
2024/01/01 10:11:53;;;;;;;7.40;1.20;;;;;;;;;;5050464;28;20052;-87
2024/01/01 10:14:19;;;;;;;1.98;0.90;;;;;;;;;;5054321;28;20151;-86
2024/01/01 10:16:45;;;;;;;5.70;1.30;;;;;;;;;;5051146;28;20041;-86
2024/01/01 10:19:12;;;;;;;4.25;1.13;;;;;;;;;;5036795;28;20135;-85
2024/01/01 10:21:41;;;;;;;2.55;1.60;;;;;;;;;;5056304;28;20045;-83
2024/01/01 10:24:21;;;;;;;2.47;1.00;;;;;;;;;;5060801;28;20064;-83
2024/01/01 10:26:48;;;;;;;1.10;0.65;;;;;;;;;;5056121;28;20052;-83
2024/01/01 10:29:16;;;;;;;1.25;0.70;;;;;;;;;;5079418;28;20052;-84
2024/01/01 10:31:47;;;;;;;6.88;1.17;;;;;;;;;;5058292;28;20037;-83
2024/01/01 10:34:14;;;;;;;5.47;0.95;;;;;;;;;;5060751;28;20108;-83
2024/01/01 10:36:41;;;;;;;2.40;0.80;;;;;;;;;;5059578;28;20028;-83
2024/01/01 10:39:08;;;;;;;4.07;1.23;;;;;;;;;;5060990;28;20044;-83
2024/01/01 10:41:35;;;;;;;4.65;1.13;;;;;;;;;;5065473;28;20036;-84
2024/01/01 10:44:03;;;;;;;2.67;0.80;;;;;;;;;;5073869;28;20059;-84
2024/01/01 10:46:37;;;;;;;3.00;1.63;;;;;;;;;;5056651;28;20042;-86
2024/01/01 10:49:05;;;;;;;6.38;1.50;;;;;;;;;;5061537;28;20079;-84
2024/01/01 10:51:31;;;;;;;3.25;1.10;;;;;;;;;;5078461;28;20075;-83
2024/01/01 10:54:27;;;;;;;3.80;1.13;;;;;;;;;;5077788;28;20044;-82
2024/01/01 10:57:11;;;;;;;3.25;0.93;;;;;;;;;;5009482;28;20081;-83
2024/01/01 10:59:44;;;;;;;6.55;1.52;;;;;;;;;;5054747;28;20029;-83
2024/01/01 11:02:11;;;;;;;5.45;1.35;;;;;;;;;;5074233;28;20059;-83
2024/01/01 11:04:40;;;;;;;2.95;0.88;;;;;;;;;;5054277;28;20523;-83
2024/01/01 11:07:06;;;;;;;4.82;1.35;;;;;;;;;;5074254;28;20040;-83
2024/01/01 11:09:32;;;;;;;8.63;1.10;;;;;;;;;;5074647;28;20098;-83
2024/01/01 11:12:00;;;;;;;4.53;1.35;;;;;;;;;;5075255;28;20044;-83
2024/01/01 11:14:31;;;;;;;3.65;1.05;;;;;;;;;;5075878;28;20045;-84
2024/01/01 11:16:58;;;;;;;2.28;0.73;;;;;;;;;;5057462;28;20711;-83
2024/01/01 11:19:42;;;;;;;1.38;0.55;;;;;;;;;;5062174;28;20048;-83
2024/01/01 11:22:25;;;;;;;2.95;0.80;;;;;;;;;;5051469;28;20514;-84
2024/01/01 11:24:51;;;;;;;1.38;0.47;;;;;;;;;;5038020;28;20043;-85
2024/01/01 11:27:24;;;;;;;2.85;1.00;;;;;;;;;;5058487;28;20040;-84
2024/01/01 11:29:50;;;;;;;2.25;0.90;;;;;;;;;;5050070;28;20060;-84
2024/01/01 11:32:20;;;;;;;2.95;0.75;;;;;;;;;;5052657;28;20036;-86
2024/01/01 11:35:08;;;;;;;1.67;1.17;;;;;;;;;;5067477;28;20076;-86
2024/01/01 11:37:35;;;;;;;7.45;1.45;;;;;;;;;;5065191;28;20037;-86
2024/01/01 11:40:02;;;;;;;1.85;0.75;;;;;;;;;;5053160;28;20048;-86
2024/01/01 11:42:28;;;;;;;3.13;0.73;;;;;;;;;;5053688;28;20559;-85
2024/01/01 11:45:07;;;;;;;3.38;0.68;;;;;;;;;;5070527;28;20039;-86
2024/01/01 11:47:34;;;;;;;3.13;0.90;;;;;;;;;;5048720;28;20479;-84
2024/01/01 11:50:03;;;;;;;1.75;0.90;;;;;;;;;;5052018;28;20515;-84
2024/01/01 11:52:30;;;;;;;2.00;0.85;;;;;;;;;;5070364;28;20047;-84
2024/01/01 11:54:56;;;;;;;5.85;0.93;;;;;;;;;;5073339;28;20123;-84
2024/01/01 11:57:22;;;;;;;9.60;1.88;;;;;;;;;;5072847;28;20101;-84
2024/01/01 11:59:49;;;;;;;4.25;1.02;;;;;;;;;;5055048;28;20051;-84
2024/01/01 12:02:15;;;;;;;5.10;1.77;;;;;;;;;;5074209;28;20043;-84
2024/01/01 12:04:43;;;;;;;3.20;1.48;;;;;;;;;;5073288;28;20044;-84
2024/01/01 12:07:09;;;;;;;2.30;1.15;;;;;;;;;;5071871;28;20075;-84
2024/01/01 12:09:35;;;;;;;4.43;1.60;;;;;;;;;;5074345;28;20028;-87
2024/01/01 12:12:12;;;;;;;7.95;1.40;;;;;;;;;;5050374;28;20102;-85
2024/01/01 12:14:39;;;;;;;4.55;1.20;;;;;;;;;;5050445;28;20032;-85
2024/01/01 12:17:06;;;;;;;2.67;1.10;;;;;;;;;;5047971;28;20071;-86
2024/01/01 12:19:32;;;;;;;4.43;1.27;;;;;;;;;;5050950;28;20036;-84
2024/01/01 12:21:58;;;;;;;1.55;0.82;;;;;;;;;;5071666;28;20108;-84
2024/01/01 12:24:26;;;;;;;2.67;0.80;;;;;;;;;;5073035;28;20124;-84
2024/01/01 12:27:01;;;;;;;4.28;1.27;;;;;;;;;;5053006;28;20441;-85
2024/01/01 12:29:29;;;;;;;7.80;1.75;;;;;;;;;;5052844;28;20148;-84
2024/01/01 12:31:55;;;;;;;4.57;1.20;;;;;;;;;;5024426;28;20049;-84
2024/01/01 12:34:21;;;;;;;2.45;0.93;;;;;;;;;;5022486;28;20099;-87
2024/01/01 12:36:48;;;;;;;4.18;0.88;;;;;;;;;;5019453;28;20052;-85
2024/01/01 12:39:20;;;;;;;3.17;1.20;;;;;;;;;;5012086;28;20045;-86
2024/01/01 12:41:46;;;;;;;2.30;1.00;;;;;;;;;;5015304;28;20037;-85
2024/01/01 12:44:12;;;;;;;4.30;1.05;;;;;;;;;;5016042;28;20068;-89
2024/01/01 12:46:38;;;;;;;3.35;0.50;;;;;;;;;;5030012;28;20042;-89
2024/01/01 12:49:05;;;;;;;1.85;0.63;;;;;;;;;;5016498;28;20492;-85
2024/01/01 12:51:31;;;;;;;5.43;0.98;;;;;;;;;;5014414;28;20041;-87
2024/01/01 12:53:58;;;;;;;2.42;0.75;;;;;;;;;;5030920;28;20041;-87
2024/01/01 12:56:24;;;;;;;5.30;1.27;;;;;;;;;;5014919;28;20054;-86
2024/01/01 12:58:50;;;;;;;2.97;1.05;;;;;;;;;;4997684;28;20042;-87
2024/01/01 13:01:17;;;;;;;3.45;0.98;;;;;;;;;;5014059;28;20493;-86
2024/01/01 13:03:44;;;;;;;3.28;0.85;;;;;;;;;;5014449;28;20049;-87
2024/01/01 13:06:10;;;;;;;6.20;2.58;;;;;;;;;;4997675;28;20392;-88
2024/01/01 13:08:37;;;;;;;4.05;1.27;;;;;;;;;;4998155;28;20079;-87
2024/01/01 13:11:06;;;;;;;3.60;1.20;;;;;;;;;;5013331;28;20416;-86
2024/01/01 13:13:36;;;;;;;6.43;2.90;;;;;;;;;;5014318;28;20046;-86
2024/01/01 13:16:02;;;;;;;4.00;1.35;;;;;;;;;;4996791;28;20528;-86
2024/01/01 13:18:29;;;;;;;3.38;0.93;;;;;;;;;;5013774;28;20041;-87
2024/01/01 13:20:55;;;;;;;4.03;0.82;;;;;;;;;;5029904;28;20073;-87
2024/01/01 13:23:21;;;;;;;7.75;1.65;;;;;;;;;;4997630;28;20048;-87
2024/01/01 13:25:47;;;;;;;2.47;0.77;;;;;;;;;;5013524;28;20045;-87
2024/01/01 13:28:13;;;;;;;2.65;0.73;;;;;;;;;;5015918;28;20038;-88
2024/01/01 13:30:43;;;;;;;3.72;0.90;;;;;;;;;;5032248;28;20041;-87
2024/01/01 13:33:09;;;;;;;2.33;0.35;;;;;;;;;;5026002;28;20045;-87
2024/01/01 13:35:36;;;;;;;7.95;1.95;;;;;;;;;;5034262;28;20403;-87
2024/01/01 13:38:02;;;;;;;3.85;1.17;;;;;;;;;;5025124;28;20037;-88
2024/01/01 13:40:28;;;;;;;2.53;1.80;;;;;;;;;;5035323;28;20038;-87
2024/01/01 13:42:54;;;;;;;4.85;1.70;;;;;;;;;;5036849;28;20086;-86
2024/01/01 13:45:20;;;;;;;5.22;1.48;;;;;;;;;;5035577;28;20065;-84
2024/01/01 13:47:47;;;;;;;3.47;0.57;;;;;;;;;;5035200;28;20125;-87
2024/01/01 13:50:13;;;;;;;2.75;0.43;;;;;;;;;;5020681;28;20041;-87
2024/01/01 13:52:40;;;;;;;1.25;0.80;;;;;;;;;;5035750;28;20044;-86
2024/01/01 13:55:06;;;;;;;4.97;0.57;;;;;;;;;;5038696;28;20041;-86
2024/01/01 13:57:32;;;;;;;1.75;0.75;;;;;;;;;;5034181;28;20037;-86
2024/01/01 13:59:58;;;;;;;5.30;2.30;;;;;;;;;;5038775;28;20033;-87
2024/01/01 14:02:24;;;;;;;6.40;2.13;;;;;;;;;;5044519;28;20037;-86
2024/01/01 14:04:50;;;;;;;5.30;1.38;;;;;;;;;;5053890;28;20116;-86
2024/01/01 14:07:16;;;;;;;3.67;1.80;;;;;;;;;;5056715;28;20156;-86
2024/01/01 14:09:43;;;;;;;6.93;1.90;;;;;;;;;;5025576;28;20049;-84
2024/01/01 14:12:09;;;;;;;9.38;1.38;;;;;;;;;;5036985;28;20095;-87
2024/01/01 14:14:35;;;;;;;3.20;0.30;;;;;;;;;;5029689;28;20088;-87
2024/01/01 14:17:01;;;;;;;6.88;1.10;;;;;;;;;;5033230;28;20072;-87
2024/01/01 14:19:27;;;;;;;2.97;1.20;;;;;;;;;;5018979;28;20033;-86
2024/01/01 14:21:53;;;;;;;3.28;0.82;;;;;;;;;;5017808;28;20037;-87
2024/01/01 14:24:22;;;;;;;1.48;0.65;;;;;;;;;;5034236;28;20436;-86
2024/01/01 14:26:48;;;;;;;6.00;0.90;;;;;;;;;;5011286;28;20040;-87
2024/01/01 14:29:14;;;;;;;2.58;0.70;;;;;;;;;;5040747;28;20475;-87
2024/01/01 14:31:40;;;;;;;3.60;0.20;;;;;;;;;;5048620;28;20053;-87
2024/01/01 14:34:06;;;;;;;2.35;0.30;;;;;;;;;;5027599;28;20100;-86
2024/01/01 14:36:32;;;;;;;2.67;0.68;;;;;;;;;;5019458;28;20457;-85